Priest River, Idaho
Current Conditions -  °F | °C
As of 1:35 PM on Wednesday 26 Nov 2014 (Local Time) from KSZT Reporting Station
Drizzle Drizzle  
Wind Chill: 34°   Ceiling: 1000
Heat Index: 34°   Visibility: 10mi
Dew Point: 34°   Wind: 0mph
Humidity: 100%   Direction: NA
Pressure: 30.14"   Gusts: NA
Location:  48.18°N, 116.91°W
Report Text: KSZT 262135Z AUTO 00000KT 10SM DZ SCT003 OVC010 01/01 A3014 RMK AO2
Loading
Personal Weather Stations






























Interactive Weather Map New forecast layout! Learn more

10-Day Weather Forecast

Advertisements
Track Severe Weather on mobile